sensor_id;sensor_type;location;lat;lon;timestamp;temperature;humidity
37310;DHT22;23195;47.744;7.358;2022-09-09T05:49:33;16.70;99.90
37310;DHT22;23195;47.744;7.358;2022-09-09T05:51:59;16.70;99.90
37310;DHT22;23195;47.744;7.358;2022-09-09T05:54:25;16.70;99.90
37310;DHT22;23195;47.744;7.358;2022-09-09T05:56:51;16.70;99.90
37310;DHT22;23195;47.744;7.358;2022-09-09T05:59:19;16.80;99.90
37310;DHT22;23195;47.744;7.358;2022-09-09T06:01:45;16.90;99.90
37310;DHT22;23195;47.744;7.358;2022-09-09T06:04:17;16.70;99.90
37310;DHT22;23195;47.744;7.358;2022-09-09T06:06:44;16.80;99.90
37310;DHT22;23195;47.744;7.358;2022-09-09T06:09:14;16.80;99.90
37310;DHT22;23195;47.744;7.358;2022-09-09T06:11:43;16.90;99.90
37310;DHT22;23195;47.744;7.358;2022-09-09T06:14:09;16.90;99.90
37310;DHT22;23195;47.744;7.358;2022-09-09T06:16:38;17.10;99.90
37310;DHT22;23195;47.744;7.358;2022-09-09T06:19:07;17.20;99.90
37310;DHT22;23195;47.744;7.358;2022-09-09T06:21:39;17.30;99.90
37310;DHT22;23195;47.744;7.358;2022-09-09T06:24:11;17.40;99.90
37310;DHT22;23195;47.744;7.358;2022-09-09T06:26:42;17.60;99.90
37310;DHT22;23195;47.744;7.358;2022-09-09T06:29:25;17.90;99.90
37310;DHT22;23195;47.744;7.358;2022-09-09T06:31:51;18.40;99.90
37310;DHT22;23195;47.744;7.358;2022-09-09T06:34:17;18.50;99.90
37310;DHT22;23195;47.744;7.358;2022-09-09T06:36:43;18.70;99.90
37310;DHT22;23195;47.744;7.358;2022-09-09T06:39:11;18.70;99.90
37310;DHT22;23195;47.744;7.358;2022-09-09T06:41:37;18.90;99.90
37310;DHT22;23195;47.744;7.358;2022-09-09T06:44:04;19.20;99.90
37310;DHT22;23195;47.744;7.358;2022-09-09T06:46:31;19.50;99.90
37310;DHT22;23195;47.744;7.358;2022-09-09T06:48:59;19.80;99.90
37310;DHT22;23195;47.744;7.358;2022-09-09T06:51:33;20.10;99.90
37310;DHT22;23195;47.744;7.358;2022-09-09T06:54:01;20.50;99.90
37310;DHT22;23195;47.744;7.358;2022-09-09T06:56:29;20.60;99.90
37310;DHT22;23195;47.744;7.358;2022-09-09T06:58:57;20.50;99.90
37310;DHT22;23195;47.744;7.358;2022-09-09T07:01:34;20.60;99.90
37310;DHT22;23195;47.744;7.358;2022-09-09T07:04:01;20.80;99.90
37310;DHT22;23195;47.744;7.358;2022-09-09T07:06:29;21.40;99.90
37310;DHT22;23195;47.744;7.358;2022-09-09T07:09:01;22.80;99.90
37310;DHT22;23195;47.744;7.358;2022-09-09T07:11:34;23.50;99.90
37310;DHT22;23195;47.744;7.358;2022-09-09T07:14:02;24.50;99.90
37310;DHT22;23195;47.744;7.358;2022-09-09T07:16:31;25.40;99.90
37310;DHT22;23195;47.744;7.358;2022-09-09T07:18:58;24.60;99.90
37310;DHT22;23195;47.744;7.358;2022-09-09T07:21:26;24.30;99.90
37310;DHT22;23195;47.744;7.358;2022-09-09T07:23:53;24.50;99.90
37310;DHT22;23195;47.744;7.358;2022-09-09T07:26:21;23.90;99.90
37310;DHT22;23195;47.744;7.358;2022-09-09T07:28:47;23.20;99.90
37310;DHT22;23195;47.744;7.358;2022-09-09T07:31:31;22.40;99.90
37310;DHT22;23195;47.744;7.358;2022-09-09T07:33:58;21.90;99.90
37310;DHT22;23195;47.744;7.358;2022-09-09T07:36:33;21.60;99.90
37310;DHT22;23195;47.744;7.358;2022-09-09T07:39:03;21.10;99.90
37310;DHT22;23195;47.744;7.358;2022-09-09T07:41:48;21.10;99.90
37310;DHT22;23195;47.744;7.358;2022-09-09T07:44:22;21.50;99.90
37310;DHT22;23195;47.744;7.358;2022-09-09T07:46:49;22.50;99.90
37310;DHT22;23195;47.744;7.358;2022-09-09T07:49:15;23.80;99.90
37310;DHT22;23195;47.744;7.358;2022-09-09T07:51:44;25.00;99.90
37310;DHT22;23195;47.744;7.358;2022-09-09T07:54:12;25.90;99.90
37310;DHT22;23195;47.744;7.358;2022-09-09T07:56:39;26.60;99.90
37310;DHT22;23195;47.744;7.358;2022-09-09T07:59:05;26.80;99.90
37310;DHT22;23195;47.744;7.358;2022-09-09T08:01:37;27.40;99.90
37310;DHT22;23195;47.744;7.358;2022-09-09T08:04:10;28.10;99.90
37310;DHT22;23195;47.744;7.358;2022-09-09T08:06:38;28.10;99.90
37310;DHT22;23195;47.744;7.358;2022-09-09T08:09:06;28.40;99.90
37310;DHT22;23195;47.744;7.358;2022-09-09T08:11:32;27.90;99.90
37310;DHT22;23195;47.744;7.358;2022-09-09T08:13:59;27.10;99.90
37310;DHT22;23195;47.744;7.358;2022-09-09T08:16:27;27.10;99.90
37310;DHT22;23195;47.744;7.358;2022-09-09T08:18:53;26.60;99.90
37310;DHT22;23195;47.744;7.358;2022-09-09T08:21:24;25.70;99.90
37310;DHT22;23195;47.744;7.358;2022-09-09T08:23:51;25.40;99.90
37310;DHT22;23195;47.744;7.358;2022-09-09T08:26:20;25.70;99.90
37310;DHT22;23195;47.744;7.358;2022-09-09T08:28:50;25.60;99.90
37310;DHT22;23195;47.744;7.358;2022-09-09T08:31:27;25.30;99.90
37310;DHT22;23195;47.744;7.358;2022-09-09T08:33:57;26.00;99.90
37310;DHT22;23195;47.744;7.358;2022-09-09T08:36:26;26.10;99.90
37310;DHT22;23195;47.744;7.358;2022-09-09T08:38:56;26.10;99.90
37310;DHT22;23195;47.744;7.358;2022-09-09T08:50:08;25.40;99.90
37310;DHT22;23195;47.744;7.358;2022-09-09T08:55:49;25.50;99.90
37310;DHT22;23195;47.744;7.358;2022-09-09T09:04:00;24.00;99.90
37310;DHT22;23195;47.744;7.358;2022-09-09T09:09:55;24.20;99.90
37310;DHT22;23195;47.744;7.358;2022-09-09T09:12:25;24.50;99.90
37310;DHT22;23195;47.744;7.358;2022-09-09T09:14:52;24.80;99.90
37310;DHT22;23195;47.744;7.358;2022-09-09T09:17:23;24.60;99.90
37310;DHT22;23195;47.744;7.358;2022-09-09T09:19:50;24.40;99.90
37310;DHT22;23195;47.744;7.358;2022-09-09T09:22:31;24.00;99.90
37310;DHT22;23195;47.744;7.358;2022-09-09T09:25:23;23.50;99.90
37310;DHT22;23195;47.744;7.358;2022-09-09T09:28:01;23.30;99.90
37310;DHT22;23195;47.744;7.358;2022-09-09T09:30:42;23.10;99.90
37310;DHT22;23195;47.744;7.358;2022-09-09T09:33:11;22.80;99.90
37310;DHT22;23195;47.744;7.358;2022-09-09T09:35:41;22.80;99.90
37310;DHT22;23195;47.744;7.358;2022-09-09T09:38:18;22.50;99.90
37310;DHT22;23195;47.744;7.358;2022-09-09T09:40:52;22.50;99.90
37310;DHT22;23195;47.744;7.358;2022-09-09T09:43:31;22.50;99.90
37310;DHT22;23195;47.744;7.358;2022-09-09T09:45:57;22.80;99.90
37310;DHT22;23195;47.744;7.358;2022-09-09T09:48:24;22.90;99.90
37310;DHT22;23195;47.744;7.358;2022-09-09T09:50:54;23.50;99.90
37310;DHT22;23195;47.744;7.358;2022-09-09T09:53:30;22.60;99.90
37310;DHT22;23195;47.744;7.358;2022-09-09T09:56:05;23.20;99.90
37310;DHT22;23195;47.744;7.358;2022-09-09T09:58:50;23.00;99.90
37310;DHT22;23195;47.744;7.358;2022-09-09T10:01:29;22.80;99.90
37310;DHT22;23195;47.744;7.358;2022-09-09T10:04:20;22.50;99.90
37310;DHT22;23195;47.744;7.358;2022-09-09T10:07:11;22.30;99.90
37310;DHT22;23195;47.744;7.358;2022-09-09T10:09:37;22.50;99.90
37310;DHT22;23195;47.744;7.358;2022-09-09T10:20:14;23.80;99.90
37310;DHT22;23195;47.744;7.358;2022-09-09T10:22:52;23.60;99.90
37310;DHT22;23195;47.744;7.358;2022-09-09T10:31:18;23.40;99.90
37310;DHT22;23195;47.744;7.358;2022-09-09T10:33:51;23.40;99.90
37310;DHT22;23195;47.744;7.358;2022-09-09T10:36:24;23.40;99.90
37310;DHT22;23195;47.744;7.358;2022-09-09T10:39:03;23.20;99.90
37310;DHT22;23195;47.744;7.358;2022-09-09T10:44:41;23.00;99.90
37310;DHT22;23195;47.744;7.358;2022-09-09T10:47:28;22.90;99.90
37310;DHT22;23195;47.744;7.358;2022-09-09T10:55:43;22.60;99.90
37310;DHT22;23195;47.744;7.358;2022-09-09T10:58:19;22.50;99.90
37310;DHT22;23195;47.744;7.358;2022-09-09T11:00:56;22.00;99.90
37310;DHT22;23195;47.744;7.358;2022-09-09T11:03:28;22.40;99.90
37310;DHT22;23195;47.744;7.358;2022-09-09T11:06:18;22.20;99.90
37310;DHT22;23195;47.744;7.358;2022-09-09T11:08:45;22.50;99.90
37310;DHT22;23195;47.744;7.358;2022-09-09T11:11:32;22.60;99.90
37310;DHT22;23195;47.744;7.358;2022-09-09T11:14:13;22.70;99.90
37310;DHT22;23195;47.744;7.358;2022-09-09T11:19:40;22.70;99.90
37310;DHT22;23195;47.744;7.358;2022-09-09T11:22:18;22.70;99.90
37310;DHT22;23195;47.744;7.358;2022-09-09T11:38:52;22.50;99.90
37310;DHT22;23195;47.744;7.358;2022-09-09T11:41:20;22.60;99.90
37310;DHT22;23195;47.744;7.358;2022-09-09T11:43:51;22.80;99.90
37310;DHT22;23195;47.744;7.358;2022-09-09T11:46:39;21.50;99.90
37310;DHT22;23195;47.744;7.358;2022-09-09T11:49:06;22.80;99.90
37310;DHT22;23195;47.744;7.358;2022-09-09T11:51:33;22.80;99.90
37310;DHT22;23195;47.744;7.358;2022-09-09T11:56:55;23.10;99.90
37310;DHT22;23195;47.744;7.358;2022-09-09T11:59:24;23.10;99.90
37310;DHT22;23195;47.744;7.358;2022-09-09T12:12:39;23.20;99.90
37310;DHT22;23195;47.744;7.358;2022-09-09T12:17:53;23.50;99.90
37310;DHT22;23195;47.744;7.358;2022-09-09T12:26:01;23.60;99.90
37310;DHT22;23195;47.744;7.358;2022-09-09T12:28:39;23.50;99.90
37310;DHT22;23195;47.744;7.358;2022-09-09T12:31:21;23.50;99.90
37310;DHT22;23195;47.744;7.358;2022-09-09T12:33:48;23.30;99.90
37310;DHT22;23195;47.744;7.358;2022-09-09T12:36:22;22.90;99.90
37310;DHT22;23195;47.744;7.358;2022-09-09T12:38:49;22.10;99.90
37310;DHT22;23195;47.744;7.358;2022-09-09T12:41:21;21.20;99.90
37310;DHT22;23195;47.744;7.358;2022-09-09T12:43:47;20.40;99.90
37310;DHT22;23195;47.744;7.358;2022-09-09T12:46:31;20.50;99.90
37310;DHT22;23195;47.744;7.358;2022-09-09T12:48:58;20.70;99.90
37310;DHT22;23195;47.744;7.358;2022-09-09T12:51:28;21.00;99.90
37310;DHT22;23195;47.744;7.358;2022-09-09T12:53:55;21.30;99.90
37310;DHT22;23195;47.744;7.358;2022-09-09T12:56:30;21.30;99.90
37310;DHT22;23195;47.744;7.358;2022-09-09T12:58:57;21.90;99.90
37310;DHT22;23195;47.744;7.358;2022-09-09T13:01:32;22.00;99.90
37310;DHT22;23195;47.744;7.358;2022-09-09T13:03:59;22.20;99.90
37310;DHT22;23195;47.744;7.358;2022-09-09T13:06:30;22.30;99.90
37310;DHT22;23195;47.744;7.358;2022-09-09T13:08:58;22.30;99.90
37310;DHT22;23195;47.744;7.358;2022-09-09T13:11:52;22.10;99.90
37310;DHT22;23195;47.744;7.358;2022-09-09T13:14:32;22.10;99.90
37310;DHT22;23195;47.744;7.358;2022-09-09T13:17:02;22.10;99.90
37310;DHT22;23195;47.744;7.358;2022-09-09T13:19:36;22.30;99.90
37310;DHT22;23195;47.744;7.358;2022-09-09T13:22:35;22.30;99.90
37310;DHT22;23195;47.744;7.358;2022-09-09T13:25:06;22.30;99.90
37310;DHT22;23195;47.744;7.358;2022-09-09T13:30:29;22.20;99.90
37310;DHT22;23195;47.744;7.358;2022-09-09T13:35:31;22.70;99.90
37310;DHT22;23195;47.744;7.358;2022-09-09T13:38:07;22.90;99.90
37310;DHT22;23195;47.744;7.358;2022-09-09T13:40:34;23.10;99.90
37310;DHT22;23195;47.744;7.358;2022-09-09T13:43:00;23.00;99.90
37310;DHT22;23195;47.744;7.358;2022-09-09T13:45:27;23.00;99.90
37310;DHT22;23195;47.744;7.358;2022-09-09T13:47:54;22.90;99.90
37310;DHT22;23195;47.744;7.358;2022-09-09T13:50:30;23.00;99.90
37310;DHT22;23195;47.744;7.358;2022-09-09T13:52:57;23.00;99.90
37310;DHT22;23195;47.744;7.358;2022-09-09T13:55:26;23.00;99.90
37310;DHT22;23195;47.744;7.358;2022-09-09T13:57:56;23.00;99.90
37310;DHT22;23195;47.744;7.358;2022-09-09T14:00:23;22.90;99.90
37310;DHT22;23195;47.744;7.358;2022-09-09T14:02:50;23.40;99.90
37310;DHT22;23195;47.744;7.358;2022-09-09T14:05:18;23.60;99.90
37310;DHT22;23195;47.744;7.358;2022-09-09T14:07:45;23.40;99.90
37310;DHT22;23195;47.744;7.358;2022-09-09T14:10:11;23.30;99.90
37310;DHT22;23195;47.744;7.358;2022-09-09T14:12:37;23.10;99.90
37310;DHT22;23195;47.744;7.358;2022-09-09T14:15:09;23.30;99.90
37310;DHT22;23195;47.744;7.358;2022-09-09T14:17:35;23.10;99.90
37310;DHT22;23195;47.744;7.358;2022-09-09T14:20:06;23.20;99.90
37310;DHT22;23195;47.744;7.358;2022-09-09T14:22:33;23.40;99.90
37310;DHT22;23195;47.744;7.358;2022-09-09T14:24:58;23.70;99.90
37310;DHT22;23195;47.744;7.358;2022-09-09T14:27:24;23.60;99.90
37310;DHT22;23195;47.744;7.358;2022-09-09T14:29:52;23.60;99.90
37310;DHT22;23195;47.744;7.358;2022-09-09T14:32:18;23.40;99.90
37310;DHT22;23195;47.744;7.358;2022-09-09T14:34:44;23.20;99.90
37310;DHT22;23195;47.744;7.358;2022-09-09T14:37:10;23.00;99.90
37310;DHT22;23195;47.744;7.358;2022-09-09T14:39:36;22.90;99.90
37310;DHT22;23195;47.744;7.358;2022-09-09T14:42:04;22.80;99.90
37310;DHT22;23195;47.744;7.358;2022-09-09T14:44:30;22.80;99.90
37310;DHT22;23195;47.744;7.358;2022-09-09T14:46:57;22.70;99.90
37310;DHT22;23195;47.744;7.358;2022-09-09T14:49:24;22.70;99.90
37310;DHT22;23195;47.744;7.358;2022-09-09T14:51:49;22.90;99.90
37310;DHT22;23195;47.744;7.358;2022-09-09T14:54:15;22.90;99.90
37310;DHT22;23195;47.744;7.358;2022-09-09T14:56:41;23.00;99.90
37310;DHT22;23195;47.744;7.358;2022-09-09T14:59:07;22.90;99.90
37310;DHT22;23195;47.744;7.358;2022-09-09T15:01:33;23.10;99.90
37310;DHT22;23195;47.744;7.358;2022-09-09T15:04:01;23.00;99.90
37310;DHT22;23195;47.744;7.358;2022-09-09T15:06:30;23.00;99.90
37310;DHT22;23195;47.744;7.358;2022-09-09T15:08:58;22.80;99.90
37310;DHT22;23195;47.744;7.358;2022-09-09T15:11:26;22.50;99.90
37310;DHT22;23195;47.744;7.358;2022-09-09T15:13:53;22.40;99.90
37310;DHT22;23195;47.744;7.358;2022-09-09T15:16:20;22.30;99.90
37310;DHT22;23195;47.744;7.358;2022-09-09T15:18:50;22.40;99.90
37310;DHT22;23195;47.744;7.358;2022-09-09T15:21:19;22.40;99.90
37310;DHT22;23195;47.744;7.358;2022-09-09T15:23:46;22.30;99.90
37310;DHT22;23195;47.744;7.358;2022-09-09T15:26:13;22.40;99.90
37310;DHT22;23195;47.744;7.358;2022-09-09T15:28:40;22.40;99.90
37310;DHT22;23195;47.744;7.358;2022-09-09T15:31:11;22.50;99.90
37310;DHT22;23195;47.744;7.358;2022-09-09T15:33:40;22.80;99.90
37310;DHT22;23195;47.744;7.358;2022-09-09T15:36:23;22.60;99.90
37310;DHT22;23195;47.744;7.358;2022-09-09T15:38:50;22.60;99.90
37310;DHT22;23195;47.744;7.358;2022-09-09T15:41:17;22.40;99.90
37310;DHT22;23195;47.744;7.358;2022-09-09T15:43:48;22.10;99.90
37310;DHT22;23195;47.744;7.358;2022-09-09T15:49:14;22.00;99.90
37310;DHT22;23195;47.744;7.358;2022-09-09T15:51:42;21.90;99.90
37310;DHT22;23195;47.744;7.358;2022-09-09T15:54:13;22.00;99.90
37310;DHT22;23195;47.744;7.358;2022-09-09T15:56:39;21.80;99.90
37310;DHT22;23195;47.744;7.358;2022-09-09T15:59:06;21.70;99.90
37310;DHT22;23195;47.744;7.358;2022-09-09T16:01:32;21.70;99.90
37310;DHT22;23195;47.744;7.358;2022-09-09T16:03:59;21.50;99.90
37310;DHT22;23195;47.744;7.358;2022-09-09T16:06:26;21.40;99.90
37310;DHT22;23195;47.744;7.358;2022-09-09T16:08:55;21.40;99.90
37310;DHT22;23195;47.744;7.358;2022-09-09T16:11:26;21.40;99.90
37310;DHT22;23195;47.744;7.358;2022-09-09T16:13:53;21.20;99.90
37310;DHT22;23195;47.744;7.358;2022-09-09T16:16:21;21.20;99.90
37310;DHT22;23195;47.744;7.358;2022-09-09T16:18:53;21.10;99.90
37310;DHT22;23195;47.744;7.358;2022-09-09T16:21:32;21.00;99.90
37310;DHT22;23195;47.744;7.358;2022-09-09T16:24:00;20.90;99.90
37310;DHT22;23195;47.744;7.358;2022-09-09T16:26:27;20.70;99.90
37310;DHT22;23195;47.744;7.358;2022-09-09T16:28:53;20.10;99.90
37310;DHT22;23195;47.744;7.358;2022-09-09T16:31:21;19.70;99.90
37310;DHT22;23195;47.744;7.358;2022-09-09T16:33:48;19.60;99.90
37310;DHT22;23195;47.744;7.358;2022-09-09T16:36:20;19.60;99.90
37310;DHT22;23195;47.744;7.358;2022-09-09T16:38:47;19.40;99.90
37310;DHT22;23195;47.744;7.358;2022-09-09T16:41:14;19.40;99.90
37310;DHT22;23195;47.744;7.358;2022-09-09T16:43:40;19.30;99.90
37310;DHT22;23195;47.744;7.358;2022-09-09T16:46:17;19.20;99.90
37310;DHT22;23195;47.744;7.358;2022-09-09T16:48:56;19.10;99.90
37310;DHT22;23195;47.744;7.358;2022-09-09T16:51:29;18.00;99.90
37310;DHT22;23195;47.744;7.358;2022-09-09T16:54:03;18.80;99.90
37310;DHT22;23195;47.744;7.358;2022-09-09T16:56:31;18.70;99.90
37310;DHT22;23195;47.744;7.358;2022-09-09T16:59:05;18.50;99.90
37310;DHT22;23195;47.744;7.358;2022-09-09T17:01:34;18.40;99.90
37310;DHT22;23195;47.744;7.358;2022-09-09T17:04:04;18.30;99.90
37310;DHT22;23195;47.744;7.358;2022-09-09T17:06:31;18.30;99.90
37310;DHT22;23195;47.744;7.358;2022-09-09T17:09:06;18.20;99.90
37310;DHT22;23195;47.744;7.358;2022-09-09T17:11:32;18.10;99.90
37310;DHT22;23195;47.744;7.358;2022-09-09T17:13:58;18.10;99.90
37310;DHT22;23195;47.744;7.358;2022-09-09T17:16:28;18.00;99.90
37310;DHT22;23195;47.744;7.358;2022-09-09T17:18:55;18.00;99.90
37310;DHT22;23195;47.744;7.358;2022-09-09T17:21:23;18.00;99.90
37310;DHT22;23195;47.744;7.358;2022-09-09T17:23:51;17.90;99.90
37310;DHT22;23195;47.744;7.358;2022-09-09T17:26:19;17.80;99.90
37310;DHT22;23195;47.744;7.358;2022-09-09T17:28:46;17.80;99.90
37310;DHT22;23195;47.744;7.358;2022-09-09T17:31:17;17.80;99.90
37310;DHT22;23195;47.744;7.358;2022-09-09T17:33:52;17.70;99.90
37310;DHT22;23195;47.744;7.358;2022-09-09T17:36:30;17.70;99.90
37310;DHT22;23195;47.744;7.358;2022-09-09T17:38:57;17.70;99.90
37310;DHT22;23195;47.744;7.358;2022-09-09T17:41:41;17.60;99.90
37310;DHT22;23195;47.744;7.358;2022-09-09T17:44:08;17.50;99.90
37310;DHT22;23195;47.744;7.358;2022-09-09T17:46:40;17.50;99.90
37310;DHT22;23195;47.744;7.358;2022-09-09T17:49:12;17.50;99.90
37310;DHT22;23195;47.744;7.358;2022-09-09T17:51:39;17.30;99.90
37310;DHT22;23195;47.744;7.358;2022-09-09T17:54:12;17.20;99.90
37310;DHT22;23195;47.744;7.358;2022-09-09T17:56:39;17.20;99.90
37310;DHT22;23195;47.744;7.358;2022-09-09T17:59:06;17.20;99.90
37310;DHT22;23195;47.744;7.358;2022-09-09T18:01:38;17.20;99.90
37310;DHT22;23195;47.744;7.358;2022-09-09T18:04:06;17.20;99.90
37310;DHT22;23195;47.744;7.358;2022-09-09T18:06:37;17.20;99.90
37310;DHT22;23195;47.744;7.358;2022-09-09T18:09:06;17.20;99.90
37310;DHT22;23195;47.744;7.358;2022-09-09T18:11:36;17.30;99.90
37310;DHT22;23195;47.744;7.358;2022-09-09T18:14:09;17.20;99.90
37310;DHT22;23195;47.744;7.358;2022-09-09T18:16:36;17.20;99.90
37310;DHT22;23195;47.744;7.358;2022-09-09T18:19:13;17.20;99.90
37310;DHT22;23195;47.744;7.358;2022-09-09T18:21:51;17.30;99.90
37310;DHT22;23195;47.744;7.358;2022-09-09T18:24:24;18.40;99.90
37310;DHT22;23195;47.744;7.358;2022-09-09T18:26:51;17.00;99.90
37310;DHT22;23195;47.744;7.358;2022-09-09T18:29:21;17.30;99.90
37310;DHT22;23195;47.744;7.358;2022-09-09T18:31:52;17.30;99.90
37310;DHT22;23195;47.744;7.358;2022-09-09T18:34:24;17.30;99.90
37310;DHT22;23195;47.744;7.358;2022-09-09T18:36:53;17.30;99.90
37310;DHT22;23195;47.744;7.358;2022-09-09T18:39:25;17.20;99.90
37310;DHT22;23195;47.744;7.358;2022-09-09T18:41:54;17.30;99.90
37310;DHT22;23195;47.744;7.358;2022-09-09T18:44:24;17.20;99.90
37310;DHT22;23195;47.744;7.358;2022-09-09T18:46:52;17.20;99.90
37310;DHT22;23195;47.744;7.358;2022-09-09T18:49:19;17.10;99.90
37310;DHT22;23195;47.744;7.358;2022-09-09T18:51:46;17.10;99.90
37310;DHT22;23195;47.744;7.358;2022-09-09T18:54:18;17.20;99.90
37310;DHT22;23195;47.744;7.358;2022-09-09T18:56:45;17.30;99.90
37310;DHT22;23195;47.744;7.358;2022-09-09T18:59:14;17.20;99.90
37310;DHT22;23195;47.744;7.358;2022-09-09T19:01:41;17.20;99.90
37310;DHT22;23195;47.744;7.358;2022-09-09T19:04:07;17.20;99.90
37310;DHT22;23195;47.744;7.358;2022-09-09T19:06:37;17.20;99.90
37310;DHT22;23195;47.744;7.358;2022-09-09T19:09:03;17.30;99.90
37310;DHT22;23195;47.744;7.358;2022-09-09T19:11:28;17.30;99.90
37310;DHT22;23195;47.744;7.358;2022-09-09T19:13:57;17.20;99.90
37310;DHT22;23195;47.744;7.358;2022-09-09T19:16:25;17.30;99.90
37310;DHT22;23195;47.744;7.358;2022-09-09T19:18:57;17.20;99.90
37310;DHT22;23195;47.744;7.358;2022-09-09T19:21:34;17.30;99.90
37310;DHT22;23195;47.744;7.358;2022-09-09T19:24:06;17.20;99.90
37310;DHT22;23195;47.744;7.358;2022-09-09T19:26:36;17.20;99.90
37310;DHT22;23195;47.744;7.358;2022-09-09T19:29:12;17.20;99.90
37310;DHT22;23195;47.744;7.358;2022-09-09T19:31:43;17.20;99.90
37310;DHT22;23195;47.744;7.358;2022-09-09T19:34:09;17.20;99.90
37310;DHT22;23195;47.744;7.358;2022-09-09T19:36:36;17.20;99.90
37310;DHT22;23195;47.744;7.358;2022-09-09T19:39:03;17.20;99.90
37310;DHT22;23195;47.744;7.358;2022-09-09T19:41:29;17.20;99.90
37310;DHT22;23195;47.744;7.358;2022-09-09T19:44:03;17.10;99.90
37310;DHT22;23195;47.744;7.358;2022-09-09T19:46:33;16.80;99.90
37310;DHT22;23195;47.744;7.358;2022-09-09T19:48:59;17.00;99.90
37310;DHT22;23195;47.744;7.358;2022-09-09T19:51:30;16.90;99.90
37310;DHT22;23195;47.744;7.358;2022-09-09T19:54:02;15.70;99.90
37310;DHT22;23195;47.744;7.358;2022-09-09T19:56:31;16.80;99.90
37310;DHT22;23195;47.744;7.358;2022-09-09T19:58:58;16.80;99.90
37310;DHT22;23195;47.744;7.358;2022-09-09T20:01:25;16.70;99.90
37310;DHT22;23195;47.744;7.358;2022-09-09T20:03:52;16.70;99.90
37310;DHT22;23195;47.744;7.358;2022-09-09T20:06:25;16.60;99.90
37310;DHT22;23195;47.744;7.358;2022-09-09T20:08:53;16.50;99.90
37310;DHT22;23195;47.744;7.358;2022-09-09T20:11:19;16.50;99.90
37310;DHT22;23195;47.744;7.358;2022-09-09T20:13:47;16.40;99.90
37310;DHT22;23195;47.744;7.358;2022-09-09T20:16:26;16.40;99.90
37310;DHT22;23195;47.744;7.358;2022-09-09T20:18:58;16.40;99.90
37310;DHT22;23195;47.744;7.358;2022-09-09T20:23:53;16.20;99.90
37310;DHT22;23195;47.744;7.358;2022-09-09T20:26:22;16.20;99.90
37310;DHT22;23195;47.744;7.358;2022-09-09T20:28:51;16.10;99.90
37310;DHT22;23195;47.744;7.358;2022-09-09T20:31:22;16.10;99.90
37310;DHT22;23195;47.744;7.358;2022-09-09T20:33:50;16.10;99.90
37310;DHT22;23195;47.744;7.358;2022-09-09T20:36:27;16.00;99.90
37310;DHT22;23195;47.744;7.358;2022-09-09T20:41:30;16.00;99.90
37310;DHT22;23195;47.744;7.358;2022-09-09T20:44:07;16.00;99.90
37310;DHT22;23195;47.744;7.358;2022-09-09T20:46:42;16.00;99.90
37310;DHT22;23195;47.744;7.358;2022-09-09T20:49:10;16.00;99.90
37310;DHT22;23195;47.744;7.358;2022-09-09T20:51:36;15.90;99.90
37310;DHT22;23195;47.744;7.358;2022-09-09T20:54:08;15.90;99.90
37310;DHT22;23195;47.744;7.358;2022-09-09T20:56:36;15.90;99.90
37310;DHT22;23195;47.744;7.358;2022-09-09T20:59:04;15.80;99.90
37310;DHT22;23195;47.744;7.358;2022-09-09T21:01:30;15.70;99.90
37310;DHT22;23195;47.744;7.358;2022-09-09T21:03:56;15.70;99.90
37310;DHT22;23195;47.744;7.358;2022-09-09T21:06:23;15.70;99.90
37310;DHT22;23195;47.744;7.358;2022-09-09T21:08:49;15.70;99.90
37310;DHT22;23195;47.744;7.358;2022-09-09T21:11:15;16.30;99.90
37310;DHT22;23195;47.744;7.358;2022-09-09T21:13:42;15.60;99.90
37310;DHT22;23195;47.744;7.358;2022-09-09T21:16:13;15.50;99.90
37310;DHT22;23195;47.744;7.358;2022-09-09T21:18:39;15.50;99.90
37310;DHT22;23195;47.744;7.358;2022-09-09T21:21:08;15.50;99.90
37310;DHT22;23195;47.744;7.358;2022-09-09T21:23:34;15.50;99.90
37310;DHT22;23195;47.744;7.358;2022-09-09T21:26:00;15.40;99.90
37310;DHT22;23195;47.744;7.358;2022-09-09T21:28:26;15.40;99.90
37310;DHT22;23195;47.744;7.358;2022-09-09T21:30:53;15.30;99.90
37310;DHT22;23195;47.744;7.358;2022-09-09T21:33:22;15.40;99.90
37310;DHT22;23195;47.744;7.358;2022-09-09T21:35:49;15.40;99.90
37310;DHT22;23195;47.744;7.358;2022-09-09T21:38:20;15.40;99.90
37310;DHT22;23195;47.744;7.358;2022-09-09T21:40:47;15.40;99.90
37310;DHT22;23195;47.744;7.358;2022-09-09T21:43:15;15.40;99.90
37310;DHT22;23195;47.744;7.358;2022-09-09T21:45:41;15.30;99.90
37310;DHT22;23195;47.744;7.358;2022-09-09T21:48:14;15.40;99.90
37310;DHT22;23195;47.744;7.358;2022-09-09T21:50:42;15.30;99.90
37310;DHT22;23195;47.744;7.358;2022-09-09T21:53:09;15.30;99.90
37310;DHT22;23195;47.744;7.358;2022-09-09T21:55:38;15.20;99.90
37310;DHT22;23195;47.744;7.358;2022-09-09T21:58:10;15.10;99.90
37310;DHT22;23195;47.744;7.358;2022-09-09T22:00:40;15.10;99.90
37310;DHT22;23195;47.744;7.358;2022-09-09T22:03:07;15.20;99.90
37310;DHT22;23195;47.744;7.358;2022-09-09T22:05:37;15.20;99.90
37310;DHT22;23195;47.744;7.358;2022-09-09T22:08:03;15.00;99.90
